createdAt,value
2023-01-13T00:01:29.825Z,26.50
2023-01-13T00:03:58.049Z,28.10
2023-01-13T00:06:26.350Z,26.90
2023-01-13T00:08:55.064Z,26.20
2023-01-13T00:11:24.549Z,22.00
2023-01-13T00:13:52.554Z,24.80
2023-01-13T00:16:21.189Z,23.70
2023-01-13T00:18:51.283Z,25.00
2023-01-13T00:21:24.697Z,23.50
2023-01-13T00:23:54.545Z,22.30
2023-01-13T00:26:27.877Z,26.40
2023-01-13T00:28:58.637Z,26.60
2023-01-13T00:31:28.542Z,27.30
2023-01-13T00:33:57.642Z,24.70
2023-01-13T00:36:25.893Z,22.20
2023-01-13T00:38:54.760Z,20.30
2023-01-13T00:41:24.751Z,21.00
2023-01-13T00:43:52.640Z,20.60
2023-01-13T00:46:22.281Z,21.70
2023-01-13T00:48:51.712Z,20.70
2023-01-13T00:51:21.671Z,19.90
2023-01-13T00:53:51.330Z,20.40
2023-01-13T00:56:38.647Z,20.50
2023-01-13T00:59:12.508Z,19.70
2023-01-13T01:01:41.279Z,20.20
2023-01-13T01:04:09.518Z,21.00
2023-01-13T01:06:38.244Z,21.00
2023-01-13T01:09:06.661Z,20.50
2023-01-13T01:11:34.653Z,21.50
2023-01-13T01:14:03.944Z,20.00
2023-01-13T01:16:34.042Z,19.70
2023-01-13T01:19:02.564Z,21.10
2023-01-13T01:21:31.653Z,20.90
2023-01-13T01:24:04.263Z,21.10
2023-01-13T01:26:32.361Z,20.20
2023-01-13T01:29:02.279Z,20.50
2023-01-13T01:31:32.896Z,19.90
2023-01-13T01:34:01.747Z,20.00
2023-01-13T01:36:30.393Z,20.20
2023-01-13T01:38:59.978Z,22.90
2023-01-13T01:41:32.582Z,20.10
2023-01-13T01:44:07.274Z,21.20
2023-01-13T01:46:38.234Z,22.20
2023-01-13T01:49:20.623Z,22.20
2023-01-13T01:51:54.234Z,20.40
2023-01-13T01:54:28.603Z,20.90
2023-01-13T01:56:56.691Z,20.60
2023-01-13T01:59:30.068Z,19.40
2023-01-13T02:01:58.832Z,19.90
2023-01-13T02:04:31.824Z,19.90
2023-01-13T02:07:01.452Z,21.60
2023-01-13T02:09:30.459Z,20.50
2023-01-13T02:12:17.324Z,20.40
2023-01-13T02:14:45.914Z,20.40
2023-01-13T02:17:37.806Z,19.60
2023-01-13T02:20:21.448Z,19.00
2023-01-13T02:22:58.536Z,18.40
2023-01-13T02:25:44.290Z,18.80
2023-01-13T02:29:04.575Z,19.40
2023-01-13T02:31:44.643Z,20.00
2023-01-13T02:34:30.012Z,19.30
2023-01-13T02:37:10.279Z,20.60
2023-01-13T02:40:25.178Z,19.30
2023-01-13T02:43:31.026Z,19.00
2023-01-13T02:46:28.253Z,19.80
2023-01-13T02:49:00.414Z,18.50
2023-01-13T02:51:31.445Z,18.40
2023-01-13T02:54:12.646Z,17.60
2023-01-13T02:59:12.447Z,16.80
2023-01-13T03:01:42.462Z,17.80
2023-01-13T03:04:45.917Z,17.10
2023-01-13T03:07:57.120Z,17.10
2023-01-13T03:10:33.462Z,17.00
2023-01-13T03:13:25.934Z,16.70
2023-01-13T03:16:19.251Z,17.10
2023-01-13T03:19:12.263Z,16.10
2023-01-13T03:21:44.429Z,17.00
2023-01-13T03:24:21.270Z,17.00
2023-01-13T03:26:56.755Z,18.20
2023-01-13T03:29:30.992Z,22.70
2023-01-13T03:32:06.847Z,22.20
2023-01-13T03:34:41.008Z,21.30
2023-01-13T03:37:10.506Z,18.50
2023-01-13T03:39:44.120Z,18.10
2023-01-13T03:42:18.810Z,17.30
2023-01-13T03:45:10.624Z,16.80
2023-01-13T03:47:53.532Z,17.00
2023-01-13T03:50:31.082Z,17.20
2023-01-13T03:53:28.224Z,17.40
2023-01-13T03:56:01.411Z,16.60
2023-01-13T03:58:33.741Z,16.70
2023-01-13T04:01:25.376Z,16.20
2023-01-13T04:04:13.932Z,15.50
2023-01-13T04:06:55.240Z,17.10
2023-01-13T04:09:32.675Z,17.10
2023-01-13T04:12:08.904Z,17.00
2023-01-13T04:14:38.040Z,18.50
2023-01-13T04:17:06.108Z,16.70
2023-01-13T04:19:34.085Z,16.90
2023-01-13T04:22:02.284Z,17.50
2023-01-13T04:24:30.211Z,18.80
2023-01-13T04:26:58.203Z,21.00
2023-01-13T04:29:26.547Z,28.90
2023-01-13T04:31:54.815Z,32.70
2023-01-13T04:34:22.852Z,27.20
2023-01-13T04:36:50.709Z,27.80
2023-01-13T04:39:18.684Z,25.30
2023-01-13T04:41:58.447Z,26.90
2023-01-13T04:44:27.416Z,21.00
2023-01-13T04:46:55.614Z,20.10
2023-01-13T04:49:23.588Z,21.70
2023-01-13T04:51:51.492Z,21.70
2023-01-13T04:54:19.988Z,21.60
2023-01-13T04:56:48.023Z,21.90
2023-01-13T04:59:15.970Z,21.30
2023-01-13T05:01:44.054Z,19.50
2023-01-13T05:04:12.074Z,19.30
2023-01-13T05:06:39.963Z,18.30
2023-01-13T05:09:07.870Z,19.80
2023-01-13T05:11:54.893Z,17.40
2023-01-13T05:14:41.470Z,17.40
2023-01-13T05:17:10.856Z,16.70
2023-01-13T05:19:41.733Z,17.70
2023-01-13T05:22:28.376Z,17.70
2023-01-13T05:25:15.174Z,17.10
2023-01-13T05:27:43.086Z,15.90
2023-01-13T05:30:11.370Z,16.40
2023-01-13T05:32:39.633Z,17.10
2023-01-13T05:35:08.033Z,17.50
2023-01-13T05:37:36.406Z,15.80
2023-01-13T05:40:26.533Z,18.10
2023-01-13T05:43:25.394Z,19.10
2023-01-13T05:45:58.024Z,15.50
2023-01-13T05:48:31.741Z,15.70
2023-01-13T05:51:00.268Z,15.30
2023-01-13T05:53:29.290Z,15.10
2023-01-13T05:55:57.284Z,15.90
2023-01-13T05:58:27.222Z,12.90
2023-01-13T06:01:00.813Z,12.80
2023-01-13T06:03:29.087Z,13.20
2023-01-13T06:05:59.582Z,13.50
2023-01-13T06:08:28.202Z,12.70
2023-01-13T06:10:56.525Z,12.60
2023-01-13T06:13:25.535Z,12.00
2023-01-13T06:15:58.266Z,11.00
2023-01-13T06:18:28.082Z,11.30
2023-01-13T06:20:56.317Z,11.90
2023-01-13T06:23:24.781Z,16.10
2023-01-13T06:26:05.501Z,13.80
2023-01-13T06:28:33.467Z,16.20
2023-01-13T06:31:07.438Z,16.50
2023-01-13T06:33:58.651Z,14.80
2023-01-13T06:36:32.450Z,18.10
2023-01-13T06:39:02.296Z,17.80
2023-01-13T06:41:51.917Z,19.30
2023-01-13T06:44:21.918Z,20.10
2023-01-13T06:46:51.704Z,19.50
2023-01-13T06:49:21.541Z,15.00
2023-01-13T06:51:50.167Z,15.20
2023-01-13T06:54:18.139Z,15.80
2023-01-13T06:56:46.200Z,15.90
2023-01-13T06:59:14.127Z,14.60
2023-01-13T07:01:44.993Z,16.90
2023-01-13T07:04:13.811Z,16.90
2023-01-13T07:06:41.687Z,16.90
2023-01-13T07:09:09.673Z,15.80
2023-01-13T07:11:37.630Z,17.20
2023-01-13T07:14:24.073Z,17.10
2023-01-13T07:16:53.754Z,16.20
2023-01-13T07:19:24.041Z,17.10
2023-01-13T07:21:52.776Z,20.40
2023-01-13T07:24:22.496Z,21.50
2023-01-13T07:26:51.949Z,21.00
2023-01-13T07:29:20.128Z,18.20
2023-01-13T07:31:50.121Z,17.90
2023-01-13T07:34:18.511Z,17.30
2023-01-13T07:36:46.426Z,20.30
2023-01-13T07:39:17.414Z,20.00
2023-01-13T07:42:03.644Z,24.40
2023-01-13T07:44:31.619Z,23.30
2023-01-13T07:46:59.575Z,18.90
2023-01-13T07:49:27.576Z,20.90
2023-01-13T07:51:55.610Z,22.00
2023-01-13T07:54:35.112Z,24.10
2023-01-13T07:57:08.635Z,26.70
2023-01-13T07:59:37.033Z,24.50
2023-01-13T08:02:05.220Z,26.40
2023-01-13T08:04:34.569Z,24.30
2023-01-13T08:07:02.633Z,20.90
2023-01-13T08:09:30.488Z,25.50
2023-01-13T08:12:17.084Z,42.10
2023-01-13T08:14:54.453Z,21.90
2023-01-13T08:17:22.525Z,24.10
2023-01-13T08:19:53.503Z,22.10
2023-01-13T08:24:50.761Z,19.00
2023-01-13T08:27:20.635Z,21.10
2023-01-13T08:29:48.561Z,19.00
2023-01-13T08:32:16.459Z,20.10
2023-01-13T08:34:44.402Z,24.80
2023-01-13T08:37:12.455Z,25.60
2023-01-13T08:39:40.374Z,23.80
2023-01-13T08:42:08.296Z,21.10
2023-01-13T08:44:36.235Z,19.60
2023-01-13T08:47:04.755Z,20.30
2023-01-13T08:49:35.634Z,19.80
2023-01-13T08:52:04.159Z,19.30
2023-01-13T08:54:31.965Z,20.50
2023-01-13T08:57:00.000Z,22.30
2023-01-13T08:59:28.069Z,20.50
2023-01-13T09:01:59.844Z,21.20
2023-01-13T09:04:29.269Z,20.10
2023-01-13T09:06:57.882Z,19.50
2023-01-13T09:09:27.816Z,18.00
2023-01-13T09:12:14.270Z,18.80
2023-01-13T09:14:42.159Z,19.00
2023-01-13T09:17:10.152Z,19.30
2023-01-13T09:19:38.114Z,19.40
2023-01-13T09:22:06.113Z,19.30
2023-01-13T09:24:34.102Z,18.90
2023-01-13T09:27:02.031Z,18.80
2023-01-13T09:29:30.113Z,19.10
2023-01-13T09:31:58.253Z,19.40
2023-01-13T09:34:44.836Z,19.60
2023-01-13T09:37:12.825Z,20.50
2023-01-13T09:39:40.790Z,19.90
2023-01-13T09:43:01.329Z,20.40
2023-01-13T09:45:58.009Z,18.00
2023-01-13T09:48:28.983Z,21.50
2023-01-13T09:53:30.058Z,19.20
2023-01-13T09:55:58.084Z,21.20
2023-01-13T09:58:27.222Z,20.90
2023-01-13T10:01:26.290Z,19.80
2023-01-13T10:03:54.496Z,36.90
2023-01-13T10:06:44.264Z,21.30
2023-01-13T10:09:21.284Z,18.90
2023-01-13T10:12:09.467Z,17.90
2023-01-13T10:14:54.664Z,17.90
2023-01-13T10:17:40.122Z,18.00
2023-01-13T10:20:11.168Z,19.40
2023-01-13T10:22:38.948Z,18.20
2023-01-13T10:25:20.982Z,17.10
2023-01-13T10:27:51.711Z,18.10
2023-01-13T10:30:31.508Z,17.20
2023-01-13T10:33:17.763Z,20.00
2023-01-13T10:35:55.017Z,19.40
2023-01-13T10:38:25.313Z,22.00
2023-01-13T10:40:57.706Z,19.30
2023-01-13T10:43:26.488Z,17.20
2023-01-13T10:46:10.214Z,19.60
2023-01-13T10:48:44.004Z,23.40
2023-01-13T10:51:20.469Z,21.10
2023-01-13T10:53:51.203Z,18.50
2023-01-13T10:56:22.330Z,17.60
2023-01-13T10:58:50.348Z,20.30
2023-01-13T11:01:30.551Z,18.50
2023-01-13T11:03:58.747Z,17.50
2023-01-13T11:06:29.645Z,20.50
2023-01-13T11:08:58.630Z,18.50
2023-01-13T11:11:28.679Z,20.40
2023-01-13T11:14:21.351Z,20.70
2023-01-13T11:16:54.001Z,20.70
2023-01-13T11:19:25.173Z,20.30
2023-01-13T11:25:03.784Z,18.30
2023-01-13T11:27:55.647Z,19.00
2023-01-13T11:30:26.560Z,18.00
2023-01-13T11:33:09.741Z,19.30
2023-01-13T11:36:02.682Z,16.80
2023-01-13T11:38:42.391Z,19.10
2023-01-13T11:41:29.025Z,19.60
2023-01-13T11:44:15.624Z,18.10
2023-01-13T11:46:43.715Z,17.90
2023-01-13T11:49:26.361Z,18.70
2023-01-13T11:52:06.493Z,17.00
2023-01-13T11:55:02.970Z,19.40
2023-01-13T11:57:54.722Z,19.50
2023-01-13T12:00:41.525Z,22.90
2023-01-13T12:03:33.732Z,20.10
2023-01-13T12:06:37.894Z,20.60
2023-01-13T12:09:21.470Z,22.10
2023-01-13T12:12:20.002Z,21.60
2023-01-13T12:15:16.141Z,19.50
2023-01-13T12:17:58.369Z,20.90
2023-01-13T12:20:38.314Z,19.50
2023-01-13T12:23:15.867Z,18.30
2023-01-13T12:25:52.812Z,19.30
2023-01-13T12:28:28.618Z,19.10
2023-01-13T12:31:02.625Z,17.80
2023-01-13T12:33:55.838Z,18.60
2023-01-13T12:37:01.318Z,19.00
2023-01-13T12:39:47.205Z,19.60
2023-01-13T12:42:43.298Z,19.50
2023-01-13T12:45:11.183Z,18.30
2023-01-13T12:47:43.609Z,21.40
2023-01-13T12:50:26.771Z,18.30
2023-01-13T12:53:32.382Z,18.50
2023-01-13T12:56:26.793Z,18.50
2023-01-13T12:59:19.162Z,16.40
2023-01-13T13:01:49.945Z,15.10
2023-01-13T13:04:41.787Z,18.20
2023-01-13T13:07:23.206Z,18.10
2023-01-13T13:10:02.894Z,15.40
2023-01-13T13:12:49.175Z,17.00
2023-01-13T13:15:21.447Z,17.60
2023-01-13T13:18:19.551Z,19.30
2023-01-13T13:21:04.740Z,16.60
2023-01-13T13:23:56.533Z,17.60
2023-01-13T13:26:38.104Z,19.20
2023-01-13T13:29:24.318Z,17.50
2023-01-13T13:32:09.061Z,18.30
2023-01-13T13:34:48.996Z,19.00
2023-01-13T13:38:08.075Z,18.40
2023-01-13T13:41:06.167Z,20.00
2023-01-13T13:44:04.172Z,30.70
2023-01-13T13:46:47.488Z,28.90
2023-01-13T13:49:22.045Z,22.20
2023-01-13T13:52:02.938Z,18.20
2023-01-13T13:54:31.991Z,16.90
2023-01-13T13:57:01.165Z,21.60
2023-01-13T13:59:30.980Z,19.50
2023-01-13T14:02:02.207Z,27.30
2023-01-13T14:04:36.946Z,20.40
2023-01-13T14:07:41.711Z,18.00
2023-01-13T14:10:24.888Z,21.20
2023-01-13T14:12:52.936Z,22.40
2023-01-13T14:15:27.234Z,19.50
2023-01-13T14:17:55.311Z,18.30
2023-01-13T14:20:23.877Z,18.70
2023-01-13T14:22:54.043Z,18.60
2023-01-13T14:25:30.591Z,20.70
2023-01-13T14:28:03.797Z,32.00
2023-01-13T14:30:33.620Z,27.20
2023-01-13T14:33:02.421Z,19.00
2023-01-13T14:35:30.347Z,22.10
2023-01-13T14:38:02.762Z,20.00
2023-01-13T14:40:35.923Z,18.80
2023-01-13T14:43:12.854Z,20.90
2023-01-13T14:45:58.804Z,22.10
2023-01-13T14:48:36.024Z,22.80
2023-01-13T14:51:09.825Z,25.30
2023-01-13T14:53:46.908Z,26.40
2023-01-13T14:56:36.825Z,24.10
2023-01-13T14:59:33.467Z,25.50
2023-01-13T15:02:22.769Z,28.80
2023-01-13T15:04:54.217Z,30.80
2023-01-13T15:07:28.022Z,26.40
2023-01-13T15:10:00.301Z,28.00
2023-01-13T15:12:39.749Z,50.80
2023-01-13T15:15:27.052Z,36.90
2023-01-13T15:17:56.655Z,38.20
2023-01-13T15:20:25.520Z,29.70
2023-01-13T15:22:55.255Z,28.80
2023-01-13T15:25:23.409Z,28.50
2023-01-13T15:27:52.844Z,30.60
2023-01-13T15:30:26.607Z,27.00
2023-01-13T15:32:57.074Z,28.00
2023-01-13T15:35:28.109Z,24.60
2023-01-13T15:37:57.266Z,24.40
2023-01-13T15:40:33.153Z,23.20
2023-01-13T15:43:19.912Z,24.50
2023-01-13T15:46:06.689Z,22.60
2023-01-13T15:48:35.782Z,22.70
2023-01-13T15:51:04.864Z,25.60
2023-01-13T15:53:36.992Z,25.00
2023-01-13T15:56:12.922Z,24.20
2023-01-13T15:58:41.268Z,27.70
2023-01-13T16:01:12.839Z,28.00
2023-01-13T16:03:40.883Z,36.00
2023-01-13T16:06:16.927Z,35.50
2023-01-13T16:08:45.072Z,31.80
2023-01-13T16:11:13.494Z,31.00
2023-01-13T16:13:41.486Z,31.50
2023-01-13T16:16:23.054Z,29.60
2023-01-13T16:18:52.005Z,29.30
2023-01-13T16:21:21.575Z,27.40
2023-01-13T16:23:51.374Z,27.80
2023-01-13T16:26:25.417Z,26.90
2023-01-13T16:28:56.178Z,30.90
2023-01-13T16:31:26.940Z,29.10
2023-01-13T16:33:55.402Z,35.10
2023-01-13T16:36:23.940Z,29.00
2023-01-13T16:38:53.737Z,25.40
2023-01-13T16:41:25.208Z,27.30
2023-01-13T16:43:53.500Z,26.60
2023-01-13T16:46:24.633Z,27.60
2023-01-13T16:51:23.881Z,30.10
2023-01-13T16:53:51.927Z,27.10
2023-01-13T16:56:25.156Z,30.90
2023-01-13T16:58:55.345Z,29.00
2023-01-13T17:01:30.400Z,34.40
2023-01-13T17:03:59.681Z,35.60
2023-01-13T17:06:35.905Z,39.80
2023-01-13T17:09:24.850Z,44.60
2023-01-13T17:11:53.535Z,36.50
2023-01-13T17:14:23.680Z,35.90
2023-01-13T17:16:54.878Z,33.70
2023-01-13T17:19:24.092Z,33.80
2023-01-13T17:21:52.242Z,37.30
2023-01-13T17:24:21.131Z,39.70
2023-01-13T17:26:50.972Z,30.40
2023-01-13T17:29:22.676Z,31.90
2023-01-13T17:31:51.844Z,44.20
2023-01-13T17:34:21.308Z,58.50
2023-01-13T17:36:49.444Z,50.20
2023-01-13T17:39:20.298Z,59.80
2023-01-13T17:44:18.895Z,56.70
2023-01-13T17:46:47.666Z,48.50
2023-01-13T17:49:18.600Z,42.00
2023-01-13T17:54:17.133Z,47.10
2023-01-13T17:56:45.228Z,46.20
2023-01-13T17:59:19.414Z,35.30
2023-01-13T18:01:47.751Z,36.60
2023-01-13T18:04:19.151Z,36.80
2023-01-13T18:06:48.812Z,31.80
2023-01-13T18:09:17.264Z,24.20
2023-01-13T18:11:47.236Z,24.70
2023-01-13T18:14:16.600Z,36.40
2023-01-13T18:16:46.155Z,32.70
2023-01-13T18:19:32.704Z,29.40
2023-01-13T18:22:20.050Z,31.60
2023-01-13T18:25:06.633Z,35.60
2023-01-13T18:27:38.268Z,35.20
2023-01-13T18:30:07.122Z,35.70
2023-01-13T18:32:36.064Z,33.00
2023-01-13T18:35:10.119Z,51.00
2023-01-13T18:37:43.154Z,52.90
2023-01-13T18:40:13.951Z,57.60
2023-01-13T18:42:55.085Z,43.60
2023-01-13T18:45:29.274Z,46.60
2023-01-13T18:48:00.301Z,48.60
2023-01-13T18:50:31.978Z,44.20
2023-01-13T18:53:01.111Z,47.30
2023-01-13T18:55:29.249Z,43.40
2023-01-13T18:57:57.592Z,52.20
2023-01-13T19:00:27.448Z,51.20
2023-01-13T19:05:36.338Z,46.50
2023-01-13T19:10:34.171Z,40.90
2023-01-13T19:13:02.354Z,53.90
2023-01-13T19:15:30.976Z,78.20
2023-01-13T19:17:59.419Z,72.90
2023-01-13T19:20:29.857Z,61.90
2023-01-13T19:22:59.941Z,62.40
2023-01-13T19:25:27.877Z,65.40
2023-01-13T19:27:55.998Z,67.30
2023-01-13T19:30:24.155Z,79.30
2023-01-13T19:32:52.164Z,105.80
2023-01-13T19:35:20.291Z,114.90
2023-01-13T19:37:48.267Z,124.00
2023-01-13T19:40:16.478Z,100.90
2023-01-13T19:43:03.025Z,85.10
2023-01-13T19:45:33.973Z,63.80
2023-01-13T19:48:02.647Z,52.60
2023-01-13T19:50:31.213Z,48.00
2023-01-13T19:52:59.399Z,44.00
2023-01-13T19:55:28.131Z,43.50
2023-01-13T19:57:56.113Z,44.20
2023-01-13T20:00:24.209Z,39.50
2023-01-13T20:02:53.414Z,36.80
2023-01-13T20:05:24.397Z,39.40
2023-01-13T20:07:52.961Z,40.20
2023-01-13T20:10:22.869Z,47.90
2023-01-13T20:12:51.418Z,54.90
2023-01-13T20:15:19.485Z,62.90
2023-01-13T20:17:47.923Z,63.80
2023-01-13T20:20:16.940Z,65.50
2023-01-13T20:22:44.914Z,68.90
2023-01-13T20:25:17.049Z,68.90
2023-01-13T20:27:47.928Z,72.10
2023-01-13T20:30:16.168Z,75.90
2023-01-13T20:32:44.577Z,58.40
2023-01-13T20:35:13.880Z,54.40
2023-01-13T20:37:45.721Z,48.50
2023-01-13T20:40:16.249Z,42.50
2023-01-13T20:42:48.156Z,42.10
2023-01-13T20:45:20.595Z,40.20
2023-01-13T20:47:51.590Z,43.50
2023-01-13T20:50:19.832Z,45.00
2023-01-13T20:52:49.034Z,49.90
2023-01-13T20:55:17.218Z,48.60
2023-01-13T20:57:50.315Z,50.00
2023-01-13T21:00:19.279Z,46.80
2023-01-13T21:02:47.359Z,47.10
2023-01-13T21:05:15.546Z,43.90
2023-01-13T21:07:45.392Z,42.80
2023-01-13T21:10:13.509Z,43.80
2023-01-13T21:13:00.359Z,46.60
2023-01-13T21:15:28.620Z,45.90
2023-01-13T21:18:21.143Z,46.40
2023-01-13T21:21:11.803Z,45.80
2023-01-13T21:23:42.543Z,48.10
2023-01-13T21:26:12.062Z,51.80
2023-01-13T21:28:40.135Z,49.40
2023-01-13T21:31:09.639Z,52.00
2023-01-13T21:33:38.328Z,51.10
2023-01-13T21:36:08.071Z,49.70
2023-01-13T21:38:36.319Z,49.40
2023-01-13T21:41:07.963Z,48.90
2023-01-13T21:43:56.034Z,45.00
2023-01-13T21:46:45.890Z,46.60
2023-01-13T21:49:14.020Z,44.30
2023-01-13T21:51:44.374Z,43.50
2023-01-13T21:54:13.066Z,42.10
2023-01-13T21:56:40.940Z,39.30
2023-01-13T21:59:08.863Z,39.00
2023-01-13T22:01:36.941Z,37.50
2023-01-13T22:04:24.859Z,38.50
2023-01-13T22:06:52.791Z,40.30
2023-01-13T22:09:20.873Z,41.60
2023-01-13T22:11:48.972Z,39.20
2023-01-13T22:14:17.082Z,38.60
2023-01-13T22:16:49.812Z,38.10
2023-01-13T22:19:18.700Z,37.40
2023-01-13T22:21:46.743Z,39.40
2023-01-13T22:24:14.738Z,37.40
2023-01-13T22:26:42.785Z,37.40
2023-01-13T22:29:11.102Z,36.00
2023-01-13T22:31:39.523Z,35.60
2023-01-13T22:34:07.596Z,37.30
2023-01-13T22:36:35.491Z,33.70
2023-01-13T22:39:04.869Z,32.50
2023-01-13T22:41:32.840Z,31.00
2023-01-13T22:44:00.701Z,31.10
2023-01-13T22:46:28.847Z,31.70
2023-01-13T22:48:56.878Z,32.70
2023-01-13T22:51:26.676Z,31.60
2023-01-13T22:53:55.015Z,32.20
2023-01-13T22:56:24.812Z,31.00
2023-01-13T22:58:54.777Z,29.40
2023-01-13T23:01:24.004Z,30.60
2023-01-13T23:03:52.190Z,30.30
2023-01-13T23:06:22.037Z,30.20
2023-01-13T23:08:50.710Z,29.50
2023-01-13T23:11:20.582Z,30.00
2023-01-13T23:13:48.415Z,31.60
2023-01-13T23:16:21.412Z,31.40
2023-01-13T23:18:50.118Z,32.20
2023-01-13T23:21:21.073Z,31.20
2023-01-13T23:26:18.398Z,30.70
2023-01-13T23:28:47.067Z,31.30
2023-01-13T23:31:18.254Z,30.70
2023-01-13T23:33:47.426Z,29.90
2023-01-13T23:36:18.572Z,31.20
2023-01-13T23:41:17.122Z,30.50
2023-01-13T23:43:53.847Z,31.50
2023-01-13T23:46:22.259Z,32.90
2023-01-13T23:48:50.903Z,31.80
2023-01-13T23:51:21.433Z,31.60
2023-01-13T23:53:50.997Z,32.20
2023-01-13T23:56:24.969Z,31.00
2023-01-13T23:58:54.060Z,33.60
